createdAt,value
2022-11-06T00:07:11.362Z,3.22
2022-11-06T00:17:13.965Z,3.38
2022-11-06T00:27:17.918Z,3.60
2022-11-06T00:37:20.568Z,3.60
2022-11-06T00:47:25.282Z,3.72
2022-11-06T00:57:27.992Z,3.47
2022-11-06T01:07:32.074Z,3.25
2022-11-06T01:17:35.797Z,3.00
2022-11-06T01:27:39.761Z,3.17
2022-11-06T01:37:43.696Z,3.28
2022-11-06T01:47:47.949Z,3.13
2022-11-06T01:57:50.745Z,3.55
2022-11-06T02:07:56.467Z,3.83
2022-11-06T02:18:13.518Z,3.50
2022-11-06T02:28:24.542Z,3.28
2022-11-06T02:38:31.605Z,3.65
2022-11-06T02:48:42.210Z,3.10
2022-11-06T03:08:57.710Z,2.60
2022-11-06T03:19:07.088Z,2.90
2022-11-06T03:29:15.268Z,3.05
2022-11-06T03:39:22.655Z,3.88
2022-11-06T03:49:31.401Z,2.78
2022-11-06T03:59:39.134Z,2.97
2022-11-06T04:10:05.396Z,3.30
2022-11-06T04:20:32.801Z,3.35
2022-11-06T04:30:43.302Z,3.00
2022-11-06T04:40:55.380Z,3.30
2022-11-06T04:51:02.187Z,2.92
2022-11-06T05:01:05.313Z,3.13
2022-11-06T05:11:09.524Z,3.05
2022-11-06T05:21:29.895Z,3.13
2022-11-06T05:31:34.044Z,3.30
2022-11-06T05:41:36.908Z,2.55
2022-11-06T05:51:41.129Z,2.28
2022-11-06T06:01:43.907Z,3.15
2022-11-06T06:11:51.629Z,2.72
2022-11-06T06:21:54.440Z,2.00
2022-11-06T06:31:58.569Z,2.55
2022-11-06T06:42:01.185Z,2.40
2022-11-06T06:52:05.411Z,2.33
2022-11-06T07:02:08.208Z,2.30
2022-11-06T07:12:12.339Z,2.25
2022-11-06T07:22:15.012Z,2.17
2022-11-06T07:32:19.053Z,3.30
2022-11-06T07:42:21.777Z,2.38
2022-11-06T07:52:25.820Z,2.53
2022-11-06T08:02:28.559Z,2.00
2022-11-06T08:12:32.666Z,2.03
2022-11-06T08:22:35.355Z,1.95
2022-11-06T08:32:39.354Z,2.33
2022-11-06T08:42:42.002Z,1.50
2022-11-06T08:52:45.947Z,2.45
2022-11-06T09:02:48.561Z,2.15
2022-11-06T09:12:52.950Z,1.45
2022-11-06T09:22:56.013Z,1.60
2022-11-06T09:33:02.564Z,1.83
2022-11-06T09:43:16.407Z,2.20
2022-11-06T09:53:27.286Z,1.58
2022-11-06T10:03:38.402Z,1.75
2022-11-06T10:13:54.266Z,1.70
2022-11-06T10:23:59.367Z,1.50
2022-11-06T10:34:08.167Z,1.55
2022-11-06T10:44:16.362Z,1.58
2022-11-06T10:54:34.003Z,1.48
2022-11-06T11:04:36.592Z,1.50
2022-11-06T11:14:40.586Z,1.48
2022-11-06T11:25:01.113Z,1.50
2022-11-06T11:35:10.961Z,1.70
2022-11-06T11:55:22.232Z,1.85
2022-11-06T12:05:29.488Z,1.40
2022-11-06T12:15:41.506Z,1.50
2022-11-06T12:25:48.099Z,1.30
2022-11-06T12:35:59.833Z,1.80
2022-11-06T12:46:22.885Z,1.02
2022-11-06T12:56:36.398Z,1.20
2022-11-06T13:07:06.499Z,1.25
2022-11-06T13:17:16.912Z,1.20
2022-11-06T13:27:27.127Z,1.60
2022-11-06T13:37:40.074Z,1.15
2022-11-06T13:47:54.169Z,1.05
2022-11-06T13:58:24.401Z,1.50
2022-11-06T14:08:30.505Z,1.50
2022-11-06T14:18:35.122Z,1.85
2022-11-06T14:28:39.482Z,1.23
2022-11-06T14:38:43.741Z,1.10
2022-11-06T14:48:48.898Z,2.30
2022-11-06T14:58:56.701Z,1.58
2022-11-06T15:09:02.849Z,1.60
2022-11-06T15:19:08.403Z,1.73
2022-11-06T15:29:18.877Z,1.30
2022-11-06T15:39:33.853Z,1.67
2022-11-06T15:49:36.507Z,1.67
2022-11-06T15:59:40.557Z,1.40
2022-11-06T16:09:44.219Z,1.48
2022-11-06T16:19:49.347Z,1.65
2022-11-06T16:29:55.489Z,1.25
2022-11-06T16:40:00.083Z,1.52
2022-11-06T16:50:05.780Z,1.75
2022-11-06T17:00:24.425Z,2.00
2022-11-06T17:10:37.838Z,2.05
2022-11-06T17:20:42.624Z,1.90
2022-11-06T17:30:45.891Z,2.42
2022-11-06T17:40:49.985Z,1.60
2022-11-06T17:51:10.337Z,1.80
2022-11-06T18:01:14.676Z,1.58
2022-11-06T18:11:17.358Z,2.50
2022-11-06T18:21:22.210Z,2.22
2022-11-06T18:31:24.880Z,1.98
2022-11-06T18:41:29.805Z,2.00
2022-11-06T18:51:35.428Z,1.85
2022-11-06T19:01:40.289Z,1.95
2022-11-06T19:11:42.984Z,1.50
2022-11-06T19:21:47.922Z,1.70
2022-11-06T19:31:50.542Z,1.52
2022-11-06T19:41:54.525Z,1.60
2022-11-06T19:51:57.152Z,1.67
2022-11-06T20:02:21.223Z,1.77
2022-11-06T20:12:23.931Z,1.13
2022-11-06T20:22:28.003Z,1.42
2022-11-06T20:32:30.700Z,2.15
2022-11-06T20:42:34.761Z,2.10
2022-11-06T20:52:37.425Z,1.63
2022-11-06T21:02:41.508Z,1.83
2022-11-06T21:12:44.165Z,2.00
2022-11-06T21:22:48.140Z,2.08
2022-11-06T21:32:50.760Z,2.05
2022-11-06T21:42:54.726Z,2.30
2022-11-06T21:53:14.932Z,2.65
2022-11-06T22:03:18.938Z,2.30
2022-11-06T22:13:21.607Z,2.90
2022-11-06T22:23:25.647Z,2.42
2022-11-06T22:33:28.786Z,2.17
2022-11-06T22:43:33.841Z,2.83
2022-11-06T22:53:36.772Z,2.95
2022-11-06T23:03:41.581Z,2.45
2022-11-06T23:13:44.829Z,2.67
2022-11-06T23:23:48.802Z,2.92
2022-11-06T23:33:51.547Z,2.88
2022-11-06T23:43:55.738Z,2.47
2022-11-06T23:53:58.348Z,2.40
